sensor_id;sensor_type;location;lat;lon;timestamp;P1;durP1;ratioP1;P2;durP2;ratioP2
72319;SDS011;60269;52.502;16.732;2023-02-28T00:03:20;39.40;;;14.20;;
72319;SDS011;60269;52.502;16.732;2023-02-28T00:06:52;36.22;;;13.38;;
72319;SDS011;60269;52.502;16.732;2023-02-28T00:10:25;36.40;;;12.85;;
72319;SDS011;60269;52.502;16.732;2023-02-28T00:13:59;38.00;;;11.10;;
72319;SDS011;60269;52.502;16.732;2023-02-28T00:17:31;59.80;;;15.20;;
72319;SDS011;60269;52.502;16.732;2023-02-28T00:21:03;55.75;;;15.02;;
72319;SDS011;60269;52.502;16.732;2023-02-28T00:24:36;50.80;;;12.77;;
72319;SDS011;60269;52.502;16.732;2023-02-28T00:28:08;44.50;;;12.88;;
72319;SDS011;60269;52.502;16.732;2023-02-28T00:31:40;91.40;;;27.70;;
72319;SDS011;60269;52.502;16.732;2023-02-28T00:35:12;46.55;;;15.25;;
72319;SDS011;60269;52.502;16.732;2023-02-28T00:38:45;34.97;;;11.70;;
72319;SDS011;60269;52.502;16.732;2023-02-28T00:42:17;35.28;;;10.85;;
72319;SDS011;60269;52.502;16.732;2023-02-28T00:45:49;54.35;;;16.05;;
72319;SDS011;60269;52.502;16.732;2023-02-28T00:49:23;57.07;;;13.40;;
72319;SDS011;60269;52.502;16.732;2023-02-28T00:52:55;65.35;;;17.27;;
72319;SDS011;60269;52.502;16.732;2023-02-28T00:56:27;52.58;;;13.70;;
72319;SDS011;60269;52.502;16.732;2023-02-28T00:59:59;51.50;;;14.80;;
72319;SDS011;60269;52.502;16.732;2023-02-28T01:03:31;50.35;;;14.18;;
72319;SDS011;60269;52.502;16.732;2023-02-28T01:07:03;47.95;;;13.90;;
72319;SDS011;60269;52.502;16.732;2023-02-28T01:10:36;35.53;;;11.82;;
72319;SDS011;60269;52.502;16.732;2023-02-28T01:14:08;38.73;;;12.63;;
72319;SDS011;60269;52.502;16.732;2023-02-28T01:17:40;37.47;;;12.52;;
72319;SDS011;60269;52.502;16.732;2023-02-28T01:21:13;43.95;;;13.52;;
72319;SDS011;60269;52.502;16.732;2023-02-28T01:24:46;34.20;;;13.57;;
72319;SDS011;60269;52.502;16.732;2023-02-28T01:28:19;34.88;;;12.32;;
72319;SDS011;60269;52.502;16.732;2023-02-28T01:31:51;40.80;;;13.18;;
72319;SDS011;60269;52.502;16.732;2023-02-28T01:35:23;40.20;;;12.73;;
72319;SDS011;60269;52.502;16.732;2023-02-28T01:38:56;34.88;;;11.52;;
72319;SDS011;60269;52.502;16.732;2023-02-28T01:42:28;40.28;;;12.90;;
72319;SDS011;60269;52.502;16.732;2023-02-28T01:46:00;36.63;;;12.60;;
72319;SDS011;60269;52.502;16.732;2023-02-28T01:49:32;76.10;;;27.97;;
72319;SDS011;60269;52.502;16.732;2023-02-28T01:53:05;29.50;;;10.90;;
72319;SDS011;60269;52.502;16.732;2023-02-28T01:56:47;37.28;;;12.30;;
72319;SDS011;60269;52.502;16.732;2023-02-28T02:00:26;44.33;;;16.43;;
72319;SDS011;60269;52.502;16.732;2023-02-28T02:04:01;42.65;;;14.40;;
72319;SDS011;60269;52.502;16.732;2023-02-28T02:07:37;38.53;;;11.85;;
72319;SDS011;60269;52.502;16.732;2023-02-28T02:11:11;42.37;;;14.17;;
72319;SDS011;60269;52.502;16.732;2023-02-28T02:38:52;32.70;;;11.43;;
72319;SDS011;60269;52.502;16.732;2023-02-28T02:42:36;37.70;;;12.15;;
72319;SDS011;60269;52.502;16.732;2023-02-28T02:46:33;27.35;;;11.02;;
72319;SDS011;60269;52.502;16.732;2023-02-28T02:50:08;39.83;;;13.03;;
72319;SDS011;60269;52.502;16.732;2023-02-28T02:53:55;31.42;;;13.27;;
72319;SDS011;60269;52.502;16.732;2023-02-28T02:57:33;42.95;;;12.57;;
72319;SDS011;60269;52.502;16.732;2023-02-28T03:01:10;44.92;;;15.27;;
72319;SDS011;60269;52.502;16.732;2023-02-28T03:04:48;75.03;;;19.57;;
72319;SDS011;60269;52.502;16.732;2023-02-28T03:08:24;53.08;;;16.05;;
72319;SDS011;60269;52.502;16.732;2023-02-28T03:11:57;60.17;;;17.17;;
72319;SDS011;60269;52.502;16.732;2023-02-28T03:15:32;58.83;;;19.30;;
72319;SDS011;60269;52.502;16.732;2023-02-28T03:22:53;42.92;;;12.85;;
72319;SDS011;60269;52.502;16.732;2023-02-28T03:26:31;28.80;;;12.57;;
72319;SDS011;60269;52.502;16.732;2023-02-28T03:33:55;39.78;;;13.68;;
72319;SDS011;60269;52.502;16.732;2023-02-28T03:37:52;34.55;;;14.25;;
72319;SDS011;60269;52.502;16.732;2023-02-28T03:41:35;41.77;;;13.70;;
72319;SDS011;60269;52.502;16.732;2023-02-28T03:45:13;41.15;;;14.25;;
72319;SDS011;60269;52.502;16.732;2023-02-28T03:49:14;42.95;;;15.98;;
72319;SDS011;60269;52.502;16.732;2023-02-28T03:53:06;38.37;;;13.30;;
72319;SDS011;60269;52.502;16.732;2023-02-28T03:56:43;40.55;;;13.48;;
72319;SDS011;60269;52.502;16.732;2023-02-28T04:00:27;48.60;;;14.45;;
72319;SDS011;60269;52.502;16.732;2023-02-28T04:04:02;38.03;;;12.67;;
72319;SDS011;60269;52.502;16.732;2023-02-28T04:07:35;36.53;;;12.93;;
72319;SDS011;60269;52.502;16.732;2023-02-28T04:11:12;43.03;;;14.15;;
72319;SDS011;60269;52.502;16.732;2023-02-28T04:14:57;46.78;;;14.60;;
72319;SDS011;60269;52.502;16.732;2023-02-28T04:18:29;45.63;;;16.60;;
72319;SDS011;60269;52.502;16.732;2023-02-28T04:22:01;52.83;;;16.67;;
72319;SDS011;60269;52.502;16.732;2023-02-28T04:25:33;43.00;;;14.68;;
72319;SDS011;60269;52.502;16.732;2023-02-28T04:29:05;90.73;;;27.17;;
72319;SDS011;60269;52.502;16.732;2023-02-28T04:32:38;74.85;;;22.92;;
72319;SDS011;60269;52.502;16.732;2023-02-28T04:36:10;55.72;;;18.42;;
72319;SDS011;60269;52.502;16.732;2023-02-28T04:39:42;55.90;;;17.20;;
72319;SDS011;60269;52.502;16.732;2023-02-28T04:43:15;63.70;;;19.92;;
72319;SDS011;60269;52.502;16.732;2023-02-28T04:46:47;77.20;;;24.23;;
72319;SDS011;60269;52.502;16.732;2023-02-28T04:50:20;58.03;;;17.50;;
72319;SDS011;60269;52.502;16.732;2023-02-28T04:53:52;43.63;;;15.10;;
72319;SDS011;60269;52.502;16.732;2023-02-28T04:57:24;43.78;;;14.35;;
72319;SDS011;60269;52.502;16.732;2023-02-28T05:01:02;37.83;;;13.02;;
72319;SDS011;60269;52.502;16.732;2023-02-28T05:04:46;37.77;;;13.03;;
72319;SDS011;60269;52.502;16.732;2023-02-28T05:08:19;43.03;;;13.82;;
72319;SDS011;60269;52.502;16.732;2023-02-28T05:11:51;33.03;;;14.38;;
72319;SDS011;60269;52.502;16.732;2023-02-28T05:15:24;39.10;;;12.53;;
72319;SDS011;60269;52.502;16.732;2023-02-28T05:18:56;38.95;;;12.55;;
72319;SDS011;60269;52.502;16.732;2023-02-28T05:22:29;38.15;;;13.38;;
72319;SDS011;60269;52.502;16.732;2023-02-28T05:26:01;34.80;;;12.60;;
72319;SDS011;60269;52.502;16.732;2023-02-28T05:29:33;40.93;;;13.57;;
72319;SDS011;60269;52.502;16.732;2023-02-28T05:33:06;41.88;;;13.82;;
72319;SDS011;60269;52.502;16.732;2023-02-28T05:36:38;40.05;;;12.15;;
72319;SDS011;60269;52.502;16.732;2023-02-28T05:40:10;34.00;;;12.40;;
72319;SDS011;60269;52.502;16.732;2023-02-28T05:43:43;41.20;;;12.55;;
72319;SDS011;60269;52.502;16.732;2023-02-28T05:47:15;40.95;;;11.90;;
72319;SDS011;60269;52.502;16.732;2023-02-28T05:50:48;34.43;;;12.63;;
72319;SDS011;60269;52.502;16.732;2023-02-28T05:54:20;36.67;;;12.73;;
72319;SDS011;60269;52.502;16.732;2023-02-28T05:57:52;31.25;;;10.23;;
72319;SDS011;60269;52.502;16.732;2023-02-28T06:01:31;31.63;;;11.20;;
72319;SDS011;60269;52.502;16.732;2023-02-28T06:05:24;31.87;;;11.00;;
72319;SDS011;60269;52.502;16.732;2023-02-28T06:08:56;32.67;;;11.27;;
72319;SDS011;60269;52.502;16.732;2023-02-28T06:12:28;31.25;;;10.18;;
72319;SDS011;60269;52.502;16.732;2023-02-28T06:16:01;35.47;;;12.40;;
72319;SDS011;60269;52.502;16.732;2023-02-28T06:19:32;34.55;;;12.70;;
72319;SDS011;60269;52.502;16.732;2023-02-28T06:23:05;43.60;;;13.05;;
72319;SDS011;60269;52.502;16.732;2023-02-28T06:26:37;31.23;;;12.17;;
72319;SDS011;60269;52.502;16.732;2023-02-28T06:30:09;31.23;;;11.00;;
72319;SDS011;60269;52.502;16.732;2023-02-28T06:33:42;34.90;;;12.10;;
72319;SDS011;60269;52.502;16.732;2023-02-28T06:37:15;44.00;;;16.00;;
72319;SDS011;60269;52.502;16.732;2023-02-28T06:40:54;34.13;;;14.73;;
72319;SDS011;60269;52.502;16.732;2023-02-28T06:44:27;41.80;;;14.60;;
72319;SDS011;60269;52.502;16.732;2023-02-28T06:48:06;32.65;;;14.02;;
72319;SDS011;60269;52.502;16.732;2023-02-28T06:51:39;48.17;;;14.63;;
72319;SDS011;60269;52.502;16.732;2023-02-28T06:55:15;44.03;;;13.63;;
72319;SDS011;60269;52.502;16.732;2023-02-28T06:58:49;29.10;;;11.25;;
72319;SDS011;60269;52.502;16.732;2023-02-28T07:02:24;29.73;;;10.43;;
72319;SDS011;60269;52.502;16.732;2023-02-28T07:05:57;37.22;;;12.38;;
72319;SDS011;60269;52.502;16.732;2023-02-28T07:09:30;45.20;;;14.13;;
72319;SDS011;60269;52.502;16.732;2023-02-28T07:13:02;41.20;;;13.82;;
72319;SDS011;60269;52.502;16.732;2023-02-28T07:16:36;37.70;;;13.80;;
72319;SDS011;60269;52.502;16.732;2023-02-28T07:20:08;37.08;;;13.80;;
72319;SDS011;60269;52.502;16.732;2023-02-28T07:23:40;34.97;;;12.35;;
72319;SDS011;60269;52.502;16.732;2023-02-28T07:27:13;30.93;;;12.70;;
72319;SDS011;60269;52.502;16.732;2023-02-28T07:30:55;34.03;;;12.07;;
72319;SDS011;60269;52.502;16.732;2023-02-28T07:34:27;35.45;;;13.77;;
72319;SDS011;60269;52.502;16.732;2023-02-28T07:38:00;38.27;;;13.67;;
72319;SDS011;60269;52.502;16.732;2023-02-28T07:41:32;31.63;;;11.50;;
72319;SDS011;60269;52.502;16.732;2023-02-28T07:45:06;38.22;;;13.32;;
72319;SDS011;60269;52.502;16.732;2023-02-28T07:48:39;30.98;;;12.27;;
72319;SDS011;60269;52.502;16.732;2023-02-28T07:52:11;31.40;;;12.10;;
72319;SDS011;60269;52.502;16.732;2023-02-28T07:55:43;32.17;;;11.95;;
72319;SDS011;60269;52.502;16.732;2023-02-28T07:59:15;29.15;;;11.00;;
72319;SDS011;60269;52.502;16.732;2023-02-28T08:02:47;32.00;;;10.47;;
72319;SDS011;60269;52.502;16.732;2023-02-28T08:06:20;26.25;;;10.80;;
72319;SDS011;60269;52.502;16.732;2023-02-28T08:09:53;27.70;;;10.90;;
72319;SDS011;60269;52.502;16.732;2023-02-28T08:13:25;31.03;;;12.10;;
72319;SDS011;60269;52.502;16.732;2023-02-28T08:16:58;35.75;;;12.13;;
72319;SDS011;60269;52.502;16.732;2023-02-28T08:20:31;29.75;;;11.25;;
72319;SDS011;60269;52.502;16.732;2023-02-28T08:24:03;28.73;;;11.88;;
72319;SDS011;60269;52.502;16.732;2023-02-28T08:27:35;30.80;;;10.90;;
72319;SDS011;60269;52.502;16.732;2023-02-28T08:31:08;27.73;;;10.75;;
72319;SDS011;60269;52.502;16.732;2023-02-28T08:34:43;28.13;;;10.27;;
72319;SDS011;60269;52.502;16.732;2023-02-28T08:38:18;21.83;;;8.53;;
72319;SDS011;60269;52.502;16.732;2023-02-28T08:41:50;21.60;;;7.85;;
72319;SDS011;60269;52.502;16.732;2023-02-28T08:45:36;23.77;;;8.60;;
72319;SDS011;60269;52.502;16.732;2023-02-28T08:49:09;19.30;;;7.53;;
72319;SDS011;60269;52.502;16.732;2023-02-28T08:52:42;16.48;;;7.03;;
72319;SDS011;60269;52.502;16.732;2023-02-28T08:56:15;16.65;;;7.07;;
72319;SDS011;60269;52.502;16.732;2023-02-28T08:59:51;14.98;;;6.38;;
72319;SDS011;60269;52.502;16.732;2023-02-28T09:03:23;19.33;;;7.33;;
72319;SDS011;60269;52.502;16.732;2023-02-28T09:06:56;19.90;;;7.68;;
72319;SDS011;60269;52.502;16.732;2023-02-28T09:10:28;19.58;;;6.63;;
72319;SDS011;60269;52.502;16.732;2023-02-28T09:14:00;22.70;;;7.07;;
72319;SDS011;60269;52.502;16.732;2023-02-28T09:17:35;18.30;;;6.68;;
72319;SDS011;60269;52.502;16.732;2023-02-28T09:21:08;21.20;;;7.15;;
72319;SDS011;60269;52.502;16.732;2023-02-28T09:24:42;19.53;;;6.73;;
72319;SDS011;60269;52.502;16.732;2023-02-28T09:28:14;19.10;;;6.47;;
72319;SDS011;60269;52.502;16.732;2023-02-28T09:31:49;17.60;;;5.85;;
72319;SDS011;60269;52.502;16.732;2023-02-28T09:35:22;19.80;;;6.80;;
72319;SDS011;60269;52.502;16.732;2023-02-28T09:38:54;14.47;;;4.47;;
72319;SDS011;60269;52.502;16.732;2023-02-28T09:42:32;13.15;;;4.25;;
72319;SDS011;60269;52.502;16.732;2023-02-28T09:46:13;17.08;;;4.70;;
72319;SDS011;60269;52.502;16.732;2023-02-28T09:49:58;13.30;;;4.37;;
72319;SDS011;60269;52.502;16.732;2023-02-28T09:53:39;15.13;;;5.20;;
72319;SDS011;60269;52.502;16.732;2023-02-28T09:57:32;14.05;;;4.90;;
72319;SDS011;60269;52.502;16.732;2023-02-28T10:01:12;13.20;;;4.90;;
72319;SDS011;60269;52.502;16.732;2023-02-28T10:05:11;14.75;;;4.60;;
72319;SDS011;60269;52.502;16.732;2023-02-28T10:08:56;16.67;;;4.90;;
72319;SDS011;60269;52.502;16.732;2023-02-28T10:12:44;15.75;;;4.95;;
72319;SDS011;60269;52.502;16.732;2023-02-28T10:16:52;12.87;;;4.00;;
72319;SDS011;60269;52.502;16.732;2023-02-28T10:20:24;13.43;;;5.00;;
72319;SDS011;60269;52.502;16.732;2023-02-28T10:24:05;13.60;;;5.07;;
72319;SDS011;60269;52.502;16.732;2023-02-28T10:27:49;12.17;;;3.47;;
72319;SDS011;60269;52.502;16.732;2023-02-28T10:31:24;10.30;;;3.30;;
72319;SDS011;60269;52.502;16.732;2023-02-28T10:34:59;11.73;;;3.83;;
72319;SDS011;60269;52.502;16.732;2023-02-28T10:38:38;14.38;;;4.72;;
72319;SDS011;60269;52.502;16.732;2023-02-28T10:42:27;11.83;;;4.00;;
72319;SDS011;60269;52.502;16.732;2023-02-28T10:49:47;10.63;;;3.28;;
72319;SDS011;60269;52.502;16.732;2023-02-28T11:00:58;10.02;;;3.42;;
72319;SDS011;60269;52.502;16.732;2023-02-28T11:04:32;11.85;;;4.22;;
72319;SDS011;60269;52.502;16.732;2023-02-28T11:08:12;10.20;;;4.03;;
72319;SDS011;60269;52.502;16.732;2023-02-28T11:11:46;11.18;;;3.90;;
72319;SDS011;60269;52.502;16.732;2023-02-28T11:18:59;10.73;;;4.30;;
72319;SDS011;60269;52.502;16.732;2023-02-28T11:22:35;17.70;;;5.40;;
72319;SDS011;60269;52.502;16.732;2023-02-28T11:26:10;13.57;;;3.90;;
72319;SDS011;60269;52.502;16.732;2023-02-28T11:29:46;10.23;;;3.45;;
72319;SDS011;60269;52.502;16.732;2023-02-28T11:33:23;10.83;;;3.93;;
72319;SDS011;60269;52.502;16.732;2023-02-28T11:36:58;9.53;;;3.23;;
72319;SDS011;60269;52.502;16.732;2023-02-28T11:47:59;8.93;;;3.00;;
72319;SDS011;60269;52.502;16.732;2023-02-28T11:51:47;11.63;;;3.87;;
72319;SDS011;60269;52.502;16.732;2023-02-28T11:55:42;10.00;;;3.10;;
72319;SDS011;60269;52.502;16.732;2023-02-28T12:00:45;13.38;;;3.20;;
72319;SDS011;60269;52.502;16.732;2023-02-28T12:23:44;9.10;;;2.60;;
72319;SDS011;60269;52.502;16.732;2023-02-28T12:27:27;8.48;;;3.33;;
72319;SDS011;60269;52.502;16.732;2023-02-28T12:35:11;9.80;;;3.40;;
72319;SDS011;60269;52.502;16.732;2023-02-28T12:42:58;8.93;;;3.85;;
72319;SDS011;60269;52.502;16.732;2023-02-28T12:46:37;9.38;;;4.10;;
72319;SDS011;60269;52.502;16.732;2023-02-28T12:50:36;9.98;;;3.58;;
72319;SDS011;60269;52.502;16.732;2023-02-28T12:57:49;9.88;;;3.53;;
72319;SDS011;60269;52.502;16.732;2023-02-28T13:06:10;10.17;;;2.93;;
72319;SDS011;60269;52.502;16.732;2023-02-28T13:09:56;8.43;;;3.10;;
72319;SDS011;60269;52.502;16.732;2023-02-28T13:13:30;12.25;;;4.10;;
72319;SDS011;60269;52.502;16.732;2023-02-28T13:17:10;9.75;;;3.80;;
72319;SDS011;60269;52.502;16.732;2023-02-28T13:20:48;10.17;;;4.17;;
72319;SDS011;60269;52.502;16.732;2023-02-28T13:28:10;10.27;;;3.88;;
72319;SDS011;60269;52.502;16.732;2023-02-28T13:35:38;12.97;;;5.00;;
72319;SDS011;60269;52.502;16.732;2023-02-28T13:40:06;9.25;;;3.60;;
72319;SDS011;60269;52.502;16.732;2023-02-28T13:43:12;11.10;;;4.20;;
72319;SDS011;60269;52.502;16.732;2023-02-28T13:50:38;13.40;;;4.10;;
72319;SDS011;60269;52.502;16.732;2023-02-28T13:54:28;11.85;;;4.30;;
72319;SDS011;60269;52.502;16.732;2023-02-28T14:02:01;12.00;;;4.57;;
72319;SDS011;60269;52.502;16.732;2023-02-28T14:09:59;17.33;;;4.90;;
72319;SDS011;60269;52.502;16.732;2023-02-28T14:17:15;13.07;;;4.27;;
72319;SDS011;60269;52.502;16.732;2023-02-28T14:20:52;12.90;;;4.97;;
72319;SDS011;60269;52.502;16.732;2023-02-28T14:32:11;9.80;;;3.70;;
72319;SDS011;60269;52.502;16.732;2023-02-28T14:39:40;10.73;;;3.80;;
72319;SDS011;60269;52.502;16.732;2023-02-28T14:43:20;11.35;;;4.22;;
72319;SDS011;60269;52.502;16.732;2023-02-28T14:46:55;9.43;;;3.53;;
72319;SDS011;60269;52.502;16.732;2023-02-28T14:50:37;9.90;;;3.55;;
72319;SDS011;60269;52.502;16.732;2023-02-28T14:54:12;9.60;;;3.65;;
72319;SDS011;60269;52.502;16.732;2023-02-28T14:57:51;11.23;;;4.17;;
72319;SDS011;60269;52.502;16.732;2023-02-28T15:01:28;10.93;;;3.30;;
72319;SDS011;60269;52.502;16.732;2023-02-28T15:05:10;9.80;;;3.65;;
72319;SDS011;60269;52.502;16.732;2023-02-28T15:16:35;9.07;;;3.60;;
72319;SDS011;60269;52.502;16.732;2023-02-28T15:20:12;10.48;;;3.85;;
72319;SDS011;60269;52.502;16.732;2023-02-28T15:24:32;12.02;;;4.20;;
72319;SDS011;60269;52.502;16.732;2023-02-28T15:27:56;10.47;;;3.23;;
72319;SDS011;60269;52.502;16.732;2023-02-28T15:31:32;12.45;;;3.45;;
72319;SDS011;60269;52.502;16.732;2023-02-28T15:35:29;8.80;;;3.33;;
72319;SDS011;60269;52.502;16.732;2023-02-28T15:39:17;12.45;;;3.28;;
72319;SDS011;60269;52.502;16.732;2023-02-28T15:46:55;10.75;;;3.28;;
72319;SDS011;60269;52.502;16.732;2023-02-28T15:50:34;10.85;;;2.92;;
72319;SDS011;60269;52.502;16.732;2023-02-28T15:54:07;9.20;;;2.93;;
72319;SDS011;60269;52.502;16.732;2023-02-28T15:57:44;13.32;;;3.92;;
72319;SDS011;60269;52.502;16.732;2023-02-28T16:01:27;11.13;;;3.08;;
72319;SDS011;60269;52.502;16.732;2023-02-28T16:05:16;8.60;;;3.03;;
72319;SDS011;60269;52.502;16.732;2023-02-28T16:09:04;10.70;;;3.30;;
72319;SDS011;60269;52.502;16.732;2023-02-28T16:12:39;10.27;;;3.70;;
72319;SDS011;60269;52.502;16.732;2023-02-28T16:16:18;10.90;;;3.20;;
72319;SDS011;60269;52.502;16.732;2023-02-28T16:19:53;13.30;;;4.93;;
72319;SDS011;60269;52.502;16.732;2023-02-28T16:23:28;13.77;;;4.68;;
72319;SDS011;60269;52.502;16.732;2023-02-28T16:27:00;11.35;;;4.50;;
72319;SDS011;60269;52.502;16.732;2023-02-28T16:30:32;13.07;;;5.20;;
72319;SDS011;60269;52.502;16.732;2023-02-28T16:34:04;21.95;;;7.55;;
72319;SDS011;60269;52.502;16.732;2023-02-28T16:37:37;29.60;;;10.32;;
72319;SDS011;60269;52.502;16.732;2023-02-28T16:41:11;31.75;;;10.35;;
72319;SDS011;60269;52.502;16.732;2023-02-28T16:44:48;37.20;;;13.00;;
72319;SDS011;60269;52.502;16.732;2023-02-28T16:48:20;36.17;;;10.45;;
72319;SDS011;60269;52.502;16.732;2023-02-28T16:51:53;21.95;;;7.43;;
72319;SDS011;60269;52.502;16.732;2023-02-28T16:55:26;47.90;;;14.77;;
72319;SDS011;60269;52.502;16.732;2023-02-28T16:58:59;46.65;;;17.67;;
72319;SDS011;60269;52.502;16.732;2023-02-28T17:02:32;33.10;;;12.95;;
72319;SDS011;60269;52.502;16.732;2023-02-28T17:06:06;46.23;;;21.33;;
72319;SDS011;60269;52.502;16.732;2023-02-28T17:09:47;40.63;;;17.65;;
72319;SDS011;60269;52.502;16.732;2023-02-28T17:13:20;60.75;;;21.50;;
72319;SDS011;60269;52.502;16.732;2023-02-28T17:16:51;73.72;;;25.08;;
72319;SDS011;60269;52.502;16.732;2023-02-28T17:20:23;63.83;;;23.07;;
72319;SDS011;60269;52.502;16.732;2023-02-28T17:23:56;46.92;;;18.83;;
72319;SDS011;60269;52.502;16.732;2023-02-28T17:27:28;74.65;;;26.58;;
72319;SDS011;60269;52.502;16.732;2023-02-28T17:31:00;48.73;;;17.83;;
72319;SDS011;60269;52.502;16.732;2023-02-28T17:34:33;56.75;;;18.60;;
72319;SDS011;60269;52.502;16.732;2023-02-28T17:38:04;47.28;;;18.77;;
72319;SDS011;60269;52.502;16.732;2023-02-28T17:41:42;41.30;;;15.37;;
72319;SDS011;60269;52.502;16.732;2023-02-28T17:45:14;57.65;;;19.73;;
72319;SDS011;60269;52.502;16.732;2023-02-28T17:48:47;57.50;;;21.88;;
72319;SDS011;60269;52.502;16.732;2023-02-28T17:52:20;55.67;;;20.10;;
72319;SDS011;60269;52.502;16.732;2023-02-28T17:55:54;56.90;;;24.07;;
72319;SDS011;60269;52.502;16.732;2023-02-28T17:59:26;61.63;;;28.42;;
72319;SDS011;60269;52.502;16.732;2023-02-28T18:03:05;67.20;;;28.13;;
72319;SDS011;60269;52.502;16.732;2023-02-28T18:06:39;61.17;;;21.80;;
72319;SDS011;60269;52.502;16.732;2023-02-28T18:10:19;67.28;;;26.52;;
72319;SDS011;60269;52.502;16.732;2023-02-28T18:13:52;83.93;;;28.60;;
72319;SDS011;60269;52.502;16.732;2023-02-28T18:17:27;73.40;;;24.60;;
72319;SDS011;60269;52.502;16.732;2023-02-28T18:20:59;85.40;;;26.35;;
72319;SDS011;60269;52.502;16.732;2023-02-28T18:24:32;48.72;;;18.17;;
72319;SDS011;60269;52.502;16.732;2023-02-28T18:28:04;40.08;;;14.48;;
72319;SDS011;60269;52.502;16.732;2023-02-28T18:31:37;57.60;;;17.97;;
72319;SDS011;60269;52.502;16.732;2023-02-28T18:35:09;119.93;;;37.17;;
72319;SDS011;60269;52.502;16.732;2023-02-28T18:38:41;94.57;;;31.85;;
72319;SDS011;60269;52.502;16.732;2023-02-28T18:42:14;68.40;;;20.13;;
72319;SDS011;60269;52.502;16.732;2023-02-28T18:45:46;60.05;;;18.02;;
72319;SDS011;60269;52.502;16.732;2023-02-28T18:49:18;45.25;;;15.85;;
72319;SDS011;60269;52.502;16.732;2023-02-28T18:52:50;83.17;;;24.17;;
72319;SDS011;60269;52.502;16.732;2023-02-28T18:56:25;147.57;;;39.90;;
72319;SDS011;60269;52.502;16.732;2023-02-28T18:59:58;50.65;;;18.65;;
72319;SDS011;60269;52.502;16.732;2023-02-28T19:03:30;40.40;;;14.30;;
72319;SDS011;60269;52.502;16.732;2023-02-28T19:07:03;84.00;;;22.37;;
72319;SDS011;60269;52.502;16.732;2023-02-28T19:10:37;51.22;;;14.77;;
72319;SDS011;60269;52.502;16.732;2023-02-28T19:14:10;62.83;;;19.05;;
72319;SDS011;60269;52.502;16.732;2023-02-28T19:17:42;73.10;;;23.37;;
72319;SDS011;60269;52.502;16.732;2023-02-28T19:21:17;132.90;;;44.70;;
72319;SDS011;60269;52.502;16.732;2023-02-28T19:24:50;157.35;;;55.65;;
72319;SDS011;60269;52.502;16.732;2023-02-28T19:28:27;123.00;;;45.47;;
72319;SDS011;60269;52.502;16.732;2023-02-28T19:32:00;105.00;;;38.60;;
72319;SDS011;60269;52.502;16.732;2023-02-28T19:35:34;47.83;;;18.50;;
72319;SDS011;60269;52.502;16.732;2023-02-28T19:39:08;65.10;;;18.95;;
72319;SDS011;60269;52.502;16.732;2023-02-28T19:42:40;56.00;;;24.63;;
72319;SDS011;60269;52.502;16.732;2023-02-28T19:46:13;96.63;;;39.40;;
72319;SDS011;60269;52.502;16.732;2023-02-28T19:49:45;81.32;;;36.08;;
72319;SDS011;60269;52.502;16.732;2023-02-28T19:53:17;48.97;;;18.10;;
72319;SDS011;60269;52.502;16.732;2023-02-28T19:56:51;56.95;;;19.33;;
72319;SDS011;60269;52.502;16.732;2023-02-28T20:00:28;49.88;;;17.67;;
72319;SDS011;60269;52.502;16.732;2023-02-28T20:04:00;60.20;;;19.73;;
72319;SDS011;60269;52.502;16.732;2023-02-28T20:07:35;60.75;;;19.83;;
72319;SDS011;60269;52.502;16.732;2023-02-28T20:11:11;53.88;;;18.73;;
72319;SDS011;60269;52.502;16.732;2023-02-28T20:14:46;49.22;;;17.70;;
72319;SDS011;60269;52.502;16.732;2023-02-28T20:18:18;76.00;;;26.40;;
72319;SDS011;60269;52.502;16.732;2023-02-28T20:21:50;94.43;;;31.80;;
72319;SDS011;60269;52.502;16.732;2023-02-28T20:25:22;56.97;;;21.40;;
72319;SDS011;60269;52.502;16.732;2023-02-28T20:28:54;65.07;;;20.87;;
72319;SDS011;60269;52.502;16.732;2023-02-28T20:32:26;50.67;;;19.65;;
72319;SDS011;60269;52.502;16.732;2023-02-28T20:35:59;58.28;;;18.52;;
72319;SDS011;60269;52.502;16.732;2023-02-28T20:39:36;63.70;;;22.20;;
72319;SDS011;60269;52.502;16.732;2023-02-28T20:43:08;56.13;;;18.30;;
72319;SDS011;60269;52.502;16.732;2023-02-28T20:46:39;50.08;;;18.85;;
72319;SDS011;60269;52.502;16.732;2023-02-28T20:50:14;71.30;;;24.10;;
72319;SDS011;60269;52.502;16.732;2023-02-28T20:53:47;60.80;;;21.27;;
72319;SDS011;60269;52.502;16.732;2023-02-28T20:57:20;57.25;;;21.80;;
72319;SDS011;60269;52.502;16.732;2023-02-28T21:00:59;62.78;;;22.10;;
72319;SDS011;60269;52.502;16.732;2023-02-28T21:04:35;49.57;;;18.83;;
72319;SDS011;60269;52.502;16.732;2023-02-28T21:08:07;58.47;;;21.73;;
72319;SDS011;60269;52.502;16.732;2023-02-28T21:11:39;62.90;;;20.73;;
72319;SDS011;60269;52.502;16.732;2023-02-28T21:15:12;89.47;;;35.10;;
72319;SDS011;60269;52.502;16.732;2023-02-28T21:18:44;75.30;;;27.38;;
72319;SDS011;60269;52.502;16.732;2023-02-28T21:22:17;72.47;;;25.50;;
72319;SDS011;60269;52.502;16.732;2023-02-28T21:25:49;58.17;;;21.83;;
72319;SDS011;60269;52.502;16.732;2023-02-28T21:29:21;59.10;;;20.53;;
72319;SDS011;60269;52.502;16.732;2023-02-28T21:32:53;59.15;;;21.45;;
72319;SDS011;60269;52.502;16.732;2023-02-28T21:36:26;61.85;;;20.58;;
72319;SDS011;60269;52.502;16.732;2023-02-28T21:40:04;63.80;;;19.57;;
72319;SDS011;60269;52.502;16.732;2023-02-28T21:43:36;65.25;;;21.02;;
72319;SDS011;60269;52.502;16.732;2023-02-28T21:47:09;59.97;;;20.65;;
72319;SDS011;60269;52.502;16.732;2023-02-28T21:50:53;79.47;;;25.40;;
72319;SDS011;60269;52.502;16.732;2023-02-28T21:54:28;72.63;;;23.98;;
72319;SDS011;60269;52.502;16.732;2023-02-28T21:58:02;69.63;;;20.92;;
72319;SDS011;60269;52.502;16.732;2023-02-28T22:01:40;82.55;;;27.10;;
72319;SDS011;60269;52.502;16.732;2023-02-28T22:05:15;82.73;;;28.90;;
72319;SDS011;60269;52.502;16.732;2023-02-28T22:08:47;72.00;;;24.85;;
72319;SDS011;60269;52.502;16.732;2023-02-28T22:12:22;68.18;;;22.38;;
72319;SDS011;60269;52.502;16.732;2023-02-28T22:15:55;52.03;;;18.73;;
72319;SDS011;60269;52.502;16.732;2023-02-28T22:19:32;62.22;;;19.35;;
72319;SDS011;60269;52.502;16.732;2023-02-28T22:23:06;54.47;;;18.70;;
72319;SDS011;60269;52.502;16.732;2023-02-28T22:26:38;62.27;;;26.43;;
72319;SDS011;60269;52.502;16.732;2023-02-28T22:30:10;52.63;;;21.85;;
72319;SDS011;60269;52.502;16.732;2023-02-28T22:33:43;61.03;;;21.20;;
72319;SDS011;60269;52.502;16.732;2023-02-28T22:37:17;55.22;;;19.35;;
72319;SDS011;60269;52.502;16.732;2023-02-28T22:40:50;63.37;;;22.50;;
72319;SDS011;60269;52.502;16.732;2023-02-28T22:44:21;59.17;;;18.63;;
72319;SDS011;60269;52.502;16.732;2023-02-28T22:47:54;68.78;;;21.20;;
72319;SDS011;60269;52.502;16.732;2023-02-28T22:51:26;75.53;;;24.80;;
72319;SDS011;60269;52.502;16.732;2023-02-28T22:54:58;70.88;;;22.80;;
72319;SDS011;60269;52.502;16.732;2023-02-28T22:58:31;79.88;;;26.23;;
72319;SDS011;60269;52.502;16.732;2023-02-28T23:02:03;73.73;;;26.57;;
72319;SDS011;60269;52.502;16.732;2023-02-28T23:05:35;73.28;;;26.23;;
72319;SDS011;60269;52.502;16.732;2023-02-28T23:09:11;74.60;;;27.38;;